« Back
NWS Peachtree City, Ga » Text Product » ATL Terminal Aerodrome Forecast


Printer-friendly Version
Current Version              Previous Versions:   1  2  3  4  5  6  7  8  9  

Terminal Aerodrome Forecast

785
FTUS42 KFFC 011733
TAFATL
TAF
KATL 011733Z 0118/0224 08010KT P6SM OVC006
     FM012200 08005KT P6SM BKN012
     FM020200 14005KT 3SM -DZ OVC008
     FM020600 VRB03KT 1SM -DZ OVC004
     FM021500 30005KT 4SM -DZ OVC008
     FM021900 30006KT P6SM BKN012=



USA.gov is the U.S. government's official web portal to all federal, state and local government web resources and services.